Time;durP1;ratioP1;P1;durP2;ratioP2;P2;SDS_P1;SDS_P2;PMS_P1;PMS_P2;Temp;Humidity;BMP_temperature;BMP_pressure;BME280_temperature;BME280_humidity;BME280_pressure;Samples;Min_cycle;Max_cycle;Signal;HPM_P1;HPM_P2
2022/07/03 00:01:53;;;;;;;4.43;4.03;;;14.20;99.90;;;;;;5054543;28;20107;-87
2022/07/03 00:04:20;;;;;;;7.93;4.53;;;14.10;99.90;;;;;;5054445;28;20033;-89
2022/07/03 00:06:46;;;;;;;5.68;4.50;;;14.10;99.90;;;;;;5055570;28;20346;-88
2022/07/03 00:09:12;;;;;;;5.05;4.55;;;14.10;99.90;;;;;;5055646;28;20032;-90
2022/07/03 00:11:38;;;;;;;4.38;4.03;;;14.10;99.90;;;;;;5054322;28;20025;-89
2022/07/03 00:14:03;;;;;;;5.75;4.03;;;14.10;99.90;;;;;;5054620;28;20037;-89
2022/07/03 00:16:29;;;;;;;4.78;4.32;;;14.10;99.90;;;;;;5055303;28;20021;-88
2022/07/03 00:18:55;;;;;;;4.70;4.15;;;14.10;99.90;;;;;;5055403;28;20021;-87
2022/07/03 00:21:43;;;;;;;10.68;4.97;;;14.00;99.90;;;;;;5055208;28;20071;-87
2022/07/03 00:24:14;;;;;;;5.20;3.92;;;13.90;99.90;;;;;;5053888;28;20039;-87
2022/07/03 00:26:42;;;;;;;3.92;3.47;;;13.90;99.90;;;;;;5055564;28;20071;-88
2022/07/03 00:29:10;;;;;;;5.80;4.53;;;13.80;99.90;;;;;;5053854;28;20025;-87
2022/07/03 00:31:35;;;;;;;4.88;4.43;;;13.80;99.90;;;;;;5054971;28;20021;-86
2022/07/03 00:34:02;;;;;;;4.53;4.13;;;13.80;99.90;;;;;;5054793;28;20067;-87
2022/07/03 00:36:38;;;;;;;6.25;4.50;;;13.70;99.90;;;;;;5055208;28;20112;-88
2022/07/03 00:39:04;;;;;;;5.35;4.57;;;13.70;99.90;;;;;;5053972;28;20112;-87
2022/07/03 00:41:33;;;;;;;4.78;4.22;;;13.80;99.90;;;;;;5053909;28;20377;-87
2022/07/03 00:43:59;;;;;;;6.80;4.57;;;13.80;99.90;;;;;;5053997;28;20029;-87
2022/07/03 00:46:26;;;;;;;5.07;4.63;;;13.80;99.90;;;;;;5053892;28;20029;-86
2022/07/03 00:48:54;;;;;;;5.50;4.95;;;13.70;99.90;;;;;;5055108;28;20035;-87
2022/07/03 00:51:24;;;;;;;6.70;4.65;;;13.80;99.90;;;;;;5054916;28;20025;-88
2022/07/03 00:53:52;;;;;;;6.22;4.28;;;13.70;99.90;;;;;;5054611;28;20033;-88
2022/07/03 00:56:23;;;;;;;4.03;3.43;;;13.60;99.90;;;;;;5053973;28;20435;-90
2022/07/03 00:58:54;;;;;;;6.43;4.60;;;13.60;99.90;;;;;;5054444;28;20333;-88
2022/07/03 01:01:21;;;;;;;5.63;4.40;;;13.50;99.90;;;;;;5054718;28;20369;-90
2022/07/03 01:03:53;;;;;;;5.25;4.78;;;13.50;99.90;;;;;;5053524;28;20032;-91
2022/07/03 01:06:21;;;;;;;5.70;5.07;;;13.50;99.90;;;;;;5054634;28;20025;-91
2022/07/03 01:08:51;;;;;;;5.93;4.30;;;13.40;99.90;;;;;;5054537;28;20060;-90
2022/07/03 01:11:36;;;;;;;5.40;4.90;;;13.40;99.90;;;;;;5053449;28;20488;-91
2022/07/03 01:14:40;;;;;;;5.32;4.50;;;13.40;99.90;;;;;;5053670;28;20067;-90
2022/07/03 01:17:20;;;;;;;6.22;4.93;;;13.40;99.90;;;;;;5053611;28;20043;-90
2022/07/03 01:19:48;;;;;;;9.00;4.40;;;13.30;99.90;;;;;;5053634;28;20029;-91
2022/07/03 01:22:48;;;;;;;5.18;4.72;;;13.30;99.90;;;;;;5054439;28;20025;-90
2022/07/03 01:25:24;;;;;;;6.47;4.65;;;13.30;99.90;;;;;;5053641;28;20021;-89
2022/07/03 01:27:52;;;;;;;8.38;5.70;;;13.30;99.90;;;;;;5058527;28;20017;-91
2022/07/03 01:30:20;;;;;;;6.00;5.40;;;13.30;99.90;;;;;;5057276;28;20025;-89
2022/07/03 01:32:48;;;;;;;5.72;4.40;;;13.30;99.90;;;;;;5057228;28;20029;-91
2022/07/03 01:35:22;;;;;;;5.65;5.15;;;13.30;99.90;;;;;;5058327;28;20033;-91
2022/07/03 01:37:50;;;;;;;5.63;5.07;;;13.30;99.90;;;;;;5058274;28;20036;-91
2022/07/03 01:40:17;;;;;;;5.97;4.97;;;13.30;99.90;;;;;;5057488;28;20063;-89
2022/07/03 01:42:45;;;;;;;8.43;5.68;;;13.20;99.90;;;;;;5058087;28;20063;-91
2022/07/03 01:45:13;;;;;;;5.50;4.90;;;13.20;99.90;;;;;;5058175;28;20021;-89
2022/07/03 01:47:45;;;;;;;5.22;4.72;;;13.20;99.90;;;;;;5057138;28;20128;-91
2022/07/03 01:50:13;;;;;;;6.20;5.15;;;13.10;99.90;;;;;;5058297;28;20087;-89
2022/07/03 01:52:41;;;;;;;7.93;4.70;;;13.20;99.90;;;;;;5056837;28;20082;-90
2022/07/03 01:55:09;;;;;;;5.68;5.05;;;13.10;99.90;;;;;;5058065;28;20433;-89
2022/07/03 01:57:49;;;;;;;5.03;4.53;;;13.10;99.90;;;;;;5056952;28;20161;-92
2022/07/03 02:00:21;;;;;;;5.20;4.75;;;13.10;99.90;;;;;;5057122;28;20028;-92
2022/07/03 02:03:01;;;;;;;6.53;5.60;;;13.10;99.90;;;;;;5057143;28;20029;-91
2022/07/03 02:05:45;;;;;;;5.03;4.53;;;13.00;99.90;;;;;;5057785;28;20465;-91
2022/07/03 02:08:44;;;;;;;6.35;5.30;;;13.00;99.90;;;;;;5056657;28;20032;-92
2022/07/03 02:11:13;;;;;;;9.30;5.22;;;13.00;99.90;;;;;;5045430;28;20041;-92
2022/07/03 02:13:51;;;;;;;5.70;5.13;;;12.90;99.90;;;;;;5056420;28;20041;-92
2022/07/03 02:16:20;;;;;;;5.32;4.82;;;12.90;99.90;;;;;;5057758;28;20496;-91
2022/07/03 02:19:16;;;;;;;5.97;4.97;;;12.90;99.90;;;;;;5056349;28;20028;-92
2022/07/03 02:21:47;;;;;;;7.95;5.10;;;12.90;99.90;;;;;;5055118;28;20029;-90
2022/07/03 02:24:22;;;;;;;5.65;5.15;;;12.90;99.90;;;;;;5057731;28;20025;-90
2022/07/03 02:27:02;;;;;;;5.00;4.55;;;12.90;99.90;;;;;;5056463;28;20036;-92
2022/07/03 02:29:40;;;;;;;7.78;5.10;;;12.90;99.90;;;;;;5057360;28;20031;-90
2022/07/03 02:32:15;;;;;;;5.15;4.65;;;12.90;99.90;;;;;;5056475;28;20028;-91
2022/07/03 02:34:47;;;;;;;5.88;4.82;;;12.90;99.90;;;;;;5056095;28;20041;-92
2022/07/03 02:37:18;;;;;;;5.85;4.88;;;12.90;99.90;;;;;;5055406;28;20045;-90
2022/07/03 02:40:02;;;;;;;6.75;5.25;;;12.90;99.90;;;;;;5056371;28;20115;-92
2022/07/03 02:42:29;;;;;;;5.00;4.35;;;12.90;99.90;;;;;;5056687;28;20415;-91
2022/07/03 02:44:59;;;;;;;7.22;5.38;;;12.80;99.90;;;;;;5056256;28;20071;-91
2022/07/03 02:48:02;;;;;;;5.93;5.25;;;12.70;99.90;;;;;;5057025;28;20025;-91
2022/07/03 02:50:28;;;;;;;5.88;5.15;;;12.70;99.90;;;;;;5055943;28;20036;-90
2022/07/03 02:53:06;;;;;;;5.93;5.28;;;12.70;99.90;;;;;;5055871;28;20469;-88
2022/07/03 02:55:46;;;;;;;5.68;5.10;;;12.70;99.90;;;;;;5055982;28;20021;-89
2022/07/03 02:58:41;;;;;;;8.85;5.10;;;12.70;99.90;;;;;;5057072;28;20044;-90
2022/07/03 03:01:29;;;;;;;7.93;4.88;;;12.70;99.90;;;;;;5057003;28;20051;-90
2022/07/03 03:04:13;;;;;;;5.63;5.13;;;12.70;99.90;;;;;;5056310;28;20029;-90
2022/07/03 03:06:46;;;;;;;7.53;5.57;;;12.70;99.90;;;;;;5055669;28;20057;-91
2022/07/03 03:09:20;;;;;;;8.05;4.95;;;12.80;99.90;;;;;;5056137;28;20025;-91
2022/07/03 03:11:48;;;;;;;6.15;5.45;;;12.80;99.90;;;;;;5055730;28;20519;-90
2022/07/03 03:14:20;;;;;;;6.20;5.60;;;12.80;99.90;;;;;;5055602;28;20033;-90
2022/07/03 03:16:47;;;;;;;6.00;4.97;;;12.80;99.90;;;;;;5055683;28;20140;-90
2022/07/03 03:19:13;;;;;;;6.28;5.53;;;12.80;99.90;;;;;;5056690;28;20028;-90
2022/07/03 03:21:50;;;;;;;4.93;4.43;;;12.80;99.90;;;;;;5056413;28;20498;-90
2022/07/03 03:24:16;;;;;;;5.95;5.05;;;12.90;99.90;;;;;;5056345;28;20036;-89
2022/07/03 03:26:42;;;;;;;7.93;4.95;;;12.90;99.90;;;;;;5055255;28;20025;-90
2022/07/03 03:29:07;;;;;;;6.10;5.13;;;12.90;99.90;;;;;;5056158;28;20054;-91
2022/07/03 03:31:33;;;;;;;5.97;4.85;;;12.90;99.90;;;;;;5055186;28;20465;-90
2022/07/03 03:34:00;;;;;;;5.20;4.55;;;12.90;99.90;;;;;;5055163;28;20033;-87
2022/07/03 03:36:26;;;;;;;5.22;4.72;;;12.90;99.90;;;;;;5055007;28;20021;-89
2022/07/03 03:38:51;;;;;;;5.85;4.70;;;13.00;99.90;;;;;;5055994;28;20031;-89
2022/07/03 03:41:17;;;;;;;5.68;4.78;;;13.00;99.90;;;;;;5088342;28;20388;-88
2022/07/03 03:43:43;;;;;;;5.68;4.65;;;13.00;99.90;;;;;;5055925;28;20548;-89
2022/07/03 03:46:09;;;;;;;4.85;4.43;;;13.00;99.90;;;;;;5055919;28;20029;-88
2022/07/03 03:48:35;;;;;;;6.55;5.10;;;13.00;99.90;;;;;;5054362;28;20025;-90
2022/07/03 03:51:02;;;;;;;6.15;4.72;;;13.00;99.90;;;;;;5054253;28;20104;-88
2022/07/03 03:53:28;;;;;;;5.28;4.78;;;13.00;99.90;;;;;;5054315;28;20094;-88
2022/07/03 03:56:00;;;;;;;5.47;4.97;;;13.10;99.90;;;;;;5055848;28;20093;-88
2022/07/03 03:58:27;;;;;;;4.50;4.10;;;13.10;99.90;;;;;;5054598;28;20064;-89
2022/07/03 04:00:58;;;;;;;5.70;5.07;;;13.10;99.90;;;;;;5054390;28;20036;-88
2022/07/03 04:03:28;;;;;;;5.28;4.43;;;13.20;99.90;;;;;;5054753;28;20040;-89
2022/07/03 04:05:54;;;;;;;5.32;4.45;;;13.20;99.90;;;;;;5054375;28;20025;-88
2022/07/03 04:08:21;;;;;;;5.35;4.85;;;13.30;99.90;;;;;;5055379;28;20479;-89
2022/07/03 04:10:48;;;;;;;4.95;4.50;;;13.40;99.90;;;;;;5055066;28;20043;-89
2022/07/03 04:13:14;;;;;;;6.18;4.82;;;13.40;99.90;;;;;;5054209;28;20033;-90
2022/07/03 04:15:40;;;;;;;4.65;4.25;;;13.40;99.90;;;;;;5055038;28;20377;-89
2022/07/03 04:18:06;;;;;;;4.78;4.35;;;13.50;99.90;;;;;;5055296;28;20028;-89
2022/07/03 04:20:32;;;;;;;5.57;4.68;;;13.50;99.90;;;;;;5055318;28;20025;-87
2022/07/03 04:22:58;;;;;;;5.00;4.60;;;13.60;99.90;;;;;;5055204;28;20039;-87
2022/07/03 04:25:24;;;;;;;4.97;4.45;;;13.70;99.90;;;;;;5054102;28;20029;-86
2022/07/03 04:27:49;;;;;;;5.13;4.57;;;13.70;99.90;;;;;;5055130;28;20021;-89
2022/07/03 04:30:15;;;;;;;5.82;4.50;;;13.80;99.90;;;;;;5053726;28;20086;-86
2022/07/03 04:32:41;;;;;;;4.78;4.38;;;13.90;99.90;;;;;;5053862;28;20108;-88
2022/07/03 04:35:07;;;;;;;5.38;4.40;;;14.00;99.90;;;;;;5054418;28;20024;-88
2022/07/03 04:37:33;;;;;;;4.75;4.30;;;14.10;99.90;;;;;;5053937;28;20043;-88
2022/07/03 04:39:58;;;;;;;5.15;4.22;;;14.20;99.90;;;;;;5053695;28;20021;-85
2022/07/03 04:42:24;;;;;;;4.32;3.92;;;14.30;99.90;;;;;;5054778;28;20104;-85
2022/07/03 04:44:50;;;;;;;5.45;3.85;;;14.40;99.90;;;;;;5054876;28;20056;-85
2022/07/03 04:47:15;;;;;;;4.72;4.32;;;14.40;99.90;;;;;;5053484;28;20102;-86
2022/07/03 04:49:42;;;;;;;4.88;4.47;;;14.60;99.90;;;;;;5054704;28;20033;-87
2022/07/03 04:52:08;;;;;;;4.85;4.13;;;14.60;99.90;;;;;;5053362;28;20036;-82
2022/07/03 04:54:34;;;;;;;4.40;4.00;;;14.70;99.90;;;;;;5052965;28;20033;-82
2022/07/03 04:57:00;;;;;;;5.03;4.53;;;14.70;99.90;;;;;;5052923;28;20056;-82
2022/07/03 04:59:25;;;;;;;5.18;3.80;;;14.80;99.90;;;;;;5054137;28;20033;-83
2022/07/03 05:01:51;;;;;;;6.60;4.45;;;14.80;99.90;;;;;;5053695;28;20041;-83
2022/07/03 05:04:17;;;;;;;6.68;4.00;;;14.90;99.90;;;;;;5052919;28;20029;-82
2022/07/03 05:06:43;;;;;;;5.75;3.85;;;15.00;99.90;;;;;;5054109;28;20025;-82
2022/07/03 05:09:09;;;;;;;5.05;4.10;;;15.10;99.90;;;;;;5053947;28;20027;-81
2022/07/03 05:11:35;;;;;;;5.07;4.10;;;15.20;99.90;;;;;;5052388;28;20025;-81
2022/07/03 05:14:02;;;;;;;4.50;3.90;;;15.30;99.90;;;;;;5053627;28;20033;-81
2022/07/03 05:16:28;;;;;;;4.28;3.97;;;15.40;99.90;;;;;;5052501;28;20037;-80
2022/07/03 05:18:54;;;;;;;4.18;3.83;;;15.50;99.90;;;;;;5053669;28;20162;-80
2022/07/03 05:21:19;;;;;;;6.35;4.18;;;15.60;99.90;;;;;;5052255;28;20057;-80
2022/07/03 05:23:45;;;;;;;5.45;3.75;;;15.70;99.90;;;;;;5052268;28;20040;-80
2022/07/03 05:26:11;;;;;;;5.68;3.65;;;15.80;99.90;;;;;;5053560;28;20028;-80
2022/07/03 05:28:36;;;;;;;4.22;3.90;;;16.00;99.90;;;;;;5053261;28;20051;-80
2022/07/03 05:31:02;;;;;;;4.07;3.67;;;16.10;99.90;;;;;;5052351;28;20022;-80
2022/07/03 05:33:28;;;;;;;4.18;3.88;;;16.20;99.90;;;;;;5053622;28;20126;-80
2022/07/03 05:35:57;;;;;;;5.88;3.88;;;16.40;99.90;;;;;;5053586;28;20026;-81
2022/07/03 05:41:08;;;;;;;5.55;4.32;;;16.70;99.90;;;;;;5053216;28;20064;-66
2022/07/03 05:43:33;;;;;;;5.15;3.70;;;16.90;99.90;;;;;;5053594;28;20060;-66
2022/07/03 05:45:59;;;;;;;7.88;4.28;;;17.00;99.90;;;;;;5051974;28;20036;-66
2022/07/03 05:48:25;;;;;;;6.00;3.92;;;17.30;99.90;;;;;;5053494;28;20017;-66
2022/07/03 05:50:51;;;;;;;5.25;3.78;;;17.50;99.90;;;;;;5051974;28;20029;-66
2022/07/03 05:53:17;;;;;;;4.35;4.05;;;17.70;99.90;;;;;;5053366;28;20120;-65
2022/07/03 05:55:42;;;;;;;4.47;3.88;;;17.80;99.90;;;;;;5053286;28;20110;-65
2022/07/03 05:58:08;;;;;;;4.30;3.90;;;18.00;99.90;;;;;;5053611;28;20049;-66
2022/07/03 06:00:34;;;;;;;4.05;3.67;;;18.10;99.90;;;;;;5053319;28;20079;-65
2022/07/03 06:02:59;;;;;;;4.25;3.95;;;18.20;99.90;;;;;;5053138;28;20029;-66
2022/07/03 06:05:26;;;;;;;4.45;4.05;;;18.30;99.90;;;;;;5053259;28;20017;-65
2022/07/03 06:07:52;;;;;;;5.10;4.70;;;18.50;99.90;;;;;;5051802;28;20061;-65
2022/07/03 06:10:17;;;;;;;4.70;4.30;;;18.60;99.90;;;;;;5051864;28;20390;-81
2022/07/03 06:12:43;;;;;;;4.45;4.15;;;18.70;99.90;;;;;;5053724;28;20024;-81
2022/07/03 06:15:09;;;;;;;4.63;4.20;;;18.70;99.90;;;;;;5055723;28;20377;-80
2022/07/03 06:17:36;;;;;;;4.95;4.40;;;18.80;99.90;;;;;;5056841;28;20067;-80
2022/07/03 06:20:03;;;;;;;5.00;4.60;;;18.80;99.90;;;;;;5056605;28;20108;-79
2022/07/03 06:22:28;;;;;;;4.28;3.88;;;19.10;99.90;;;;;;5056815;28;20060;-81
2022/07/03 06:24:54;;;;;;;5.75;4.18;;;19.50;99.90;;;;;;5055707;28;20056;-82
2022/07/03 06:27:19;;;;;;;4.43;3.80;;;20.00;99.90;;;;;;5056579;28;20065;-81
2022/07/03 06:29:45;;;;;;;4.32;3.92;;;20.40;99.90;;;;;;5056522;28;20402;-80
2022/07/03 06:32:11;;;;;;;3.35;3.10;;;20.70;99.90;;;;;;5055225;28;20074;-80
2022/07/03 06:34:36;;;;;;;3.17;2.97;;;21.00;99.90;;;;;;5056325;28;20060;-77
2022/07/03 06:37:02;;;;;;;3.42;3.20;;;21.20;99.90;;;;;;5056342;28;20376;-78
2022/07/03 06:39:28;;;;;;;3.58;3.28;;;21.30;99.90;;;;;;5056473;28;20384;-80
2022/07/03 06:41:53;;;;;;;3.08;2.88;;;21.50;99.90;;;;;;5056285;28;20358;-77
2022/07/03 06:44:19;;;;;;;3.22;2.97;;;21.80;99.90;;;;;;5056476;28;20150;-79
2022/07/03 06:46:44;;;;;;;2.63;2.45;;;22.20;99.90;;;;;;5056367;28;20079;-81
2022/07/03 06:49:10;;;;;;;4.10;3.22;;;22.40;99.90;;;;;;5056169;28;20151;-78
2022/07/03 06:51:36;;;;;;;2.95;2.75;;;22.60;99.90;;;;;;5055899;28;20018;-64
2022/07/03 06:54:01;;;;;;;3.38;2.40;;;22.70;99.90;;;;;;5055844;28;20536;-64
2022/07/03 06:56:27;;;;;;;2.78;2.60;;;22.90;99.90;;;;;;5049010;28;20371;-63
2022/07/03 06:58:53;;;;;;;2.67;2.47;;;23.10;99.90;;;;;;5068015;28;20104;-63
2022/07/03 07:01:18;;;;;;;2.20;2.10;;;23.50;99.80;;;;;;5036122;28;20029;-66
2022/07/03 07:03:44;;;;;;;2.60;2.40;;;23.90;97.90;;;;;;5035975;28;20484;-64
2022/07/03 07:06:09;;;;;;;2.92;2.28;;;24.10;96.20;;;;;;5035661;28;20083;-64
2022/07/03 07:08:35;;;;;;;5.75;2.45;;;24.20;96.00;;;;;;5035691;28;20025;-64
2022/07/03 07:11:01;;;;;;;2.97;2.20;;;24.30;94.70;;;;;;5035753;28;20029;-64
2022/07/03 07:13:27;;;;;;;2.47;2.28;;;24.40;93.70;;;;;;5035873;28;20076;-63
2022/07/03 07:15:52;;;;;;;2.67;2.40;;;24.50;93.70;;;;;;5035622;28;20028;-63
2022/07/03 07:18:18;;;;;;;2.50;2.25;;;24.50;93.60;;;;;;5035773;28;20036;-64
2022/07/03 07:20:44;;;;;;;2.92;2.35;;;24.50;93.80;;;;;;5035887;28;20458;-64
2022/07/03 07:23:09;;;;;;;2.40;2.20;;;24.90;92.80;;;;;;5034982;28;20112;-64
2022/07/03 07:25:36;;;;;;;2.38;2.25;;;25.20;90.70;;;;;;5035451;28;20037;-64
2022/07/03 07:28:01;;;;;;;2.13;2.03;;;25.40;90.30;;;;;;5035385;28;20044;-64
2022/07/03 07:30:27;;;;;;;2.40;2.20;;;25.50;86.80;;;;;;5035275;28;20033;-64
2022/07/03 07:32:53;;;;;;;3.70;1.92;;;25.60;86.00;;;;;;5035189;28;20038;-64
2022/07/03 07:35:18;;;;;;;2.70;2.50;;;25.70;84.20;;;;;;5035267;28;20040;-65
2022/07/03 07:37:44;;;;;;;2.60;2.40;;;25.80;84.40;;;;;;5035181;28;20108;-63
2022/07/03 07:40:10;;;;;;;2.10;2.00;;;25.80;86.20;;;;;;5035103;28;20021;-63
2022/07/03 07:42:36;;;;;;;2.70;1.92;;;25.90;81.40;;;;;;5035080;28;20029;-64
2022/07/03 07:45:01;;;;;;;2.00;1.90;;;26.00;80.90;;;;;;5035044;28;20381;-63
2022/07/03 07:47:27;;;;;;;2.10;2.00;;;26.00;81.00;;;;;;5034713;28;20026;-63
2022/07/03 07:49:52;;;;;;;2.25;2.05;;;26.10;78.50;;;;;;5034938;28;20038;-64
2022/07/03 07:52:18;;;;;;;2.20;2.00;;;26.00;77.60;;;;;;5034930;28;20053;-64
2022/07/03 07:54:44;;;;;;;2.20;2.00;;;25.90;76.90;;;;;;5034767;28;20041;-64
2022/07/03 07:57:09;;;;;;;2.13;2.00;;;26.10;78.20;;;;;;5034673;28;20053;-63
2022/07/03 07:59:35;;;;;;;2.58;2.40;;;26.40;77.40;;;;;;5035024;28;20105;-63
2022/07/03 08:07:29;;;;;;;3.63;2.50;;;27.30;76.10;;;;;;5034399;28;20401;-63
2022/07/03 08:09:55;;;;;;;2.22;2.13;;;27.30;74.60;;;;;;5034666;28;20034;-64
2022/07/03 08:12:20;;;;;;;4.22;2.40;;;27.20;75.60;;;;;;5034584;28;20029;-63
2022/07/03 08:14:46;;;;;;;2.38;2.00;;;27.50;74.30;;;;;;5034438;28;20034;-63
2022/07/03 08:17:12;;;;;;;2.47;2.20;;;27.20;72.50;;;;;;5034436;28;20029;-64
2022/07/03 08:19:37;;;;;;;2.53;1.98;;;27.20;73.70;;;;;;5034708;28;20228;-64
2022/07/03 08:22:03;;;;;;;2.58;2.38;;;27.50;71.80;;;;;;5034725;28;20029;-64
2022/07/03 08:24:29;;;;;;;3.22;1.83;;;27.60;70.80;;;;;;5034753;28;20034;-64
2022/07/03 08:26:54;;;;;;;3.03;2.30;;;27.90;70.80;;;;;;5034279;28;20379;-64
2022/07/03 08:29:20;;;;;;;2.00;1.90;;;28.30;69.10;;;;;;5034403;28;20036;-64
2022/07/03 08:31:46;;;;;;;2.65;1.90;;;28.50;66.40;;;;;;5033170;28;20113;-63
2022/07/03 08:34:13;;;;;;;2.38;2.17;;;28.50;66.00;;;;;;5033622;28;20040;-63
2022/07/03 08:36:43;;;;;;;2.10;2.00;;;28.40;66.20;;;;;;5065515;28;20460;-66
2022/07/03 08:39:09;;;;;;;2.13;2.03;;;28.50;66.10;;;;;;5034042;28;20099;-64
2022/07/03 08:41:38;;;;;;;2.45;2.03;;;28.60;65.50;;;;;;5034125;28;20053;-64
2022/07/03 08:44:05;;;;;;;3.78;2.10;;;28.80;64.60;;;;;;5033995;28;20033;-65
2022/07/03 08:46:32;;;;;;;2.70;2.38;;;29.10;64.30;;;;;;5033844;28;20037;-64
2022/07/03 08:49:02;;;;;;;3.30;2.33;;;29.10;62.90;;;;;;5033965;28;20029;-64
2022/07/03 08:51:28;;;;;;;2.60;2.40;;;28.70;63.20;;;;;;5033962;28;20040;-64
2022/07/03 08:53:54;;;;;;;2.60;2.45;;;28.30;65.00;;;;;;5033454;28;20033;-64
2022/07/03 08:56:22;;;;;;;2.47;2.28;;;28.30;64.30;;;;;;5033502;28;20021;-63
2022/07/03 08:58:48;;;;;;;2.50;2.30;;;28.00;66.30;;;;;;5033489;28;20106;-64
2022/07/03 09:01:18;;;;;;;2.72;2.55;;;28.50;65.00;;;;;;5033765;28;20030;-64
2022/07/03 09:03:45;;;;;;;2.42;2.22;;;28.80;63.40;;;;;;5032512;28;20038;-63
2022/07/03 09:06:13;;;;;;;2.17;1.95;;;29.00;64.60;;;;;;5033591;28;20029;-67
2022/07/03 09:08:39;;;;;;;2.05;1.92;;;29.50;62.60;;;;;;5066118;28;20033;-68
2022/07/03 09:11:05;;;;;;;2.67;2.20;;;29.80;61.30;;;;;;5033676;28;20030;-65
2022/07/03 09:13:31;;;;;;;2.35;2.17;;;30.10;60.70;;;;;;5033538;28;20037;-68
2022/07/03 09:15:56;;;;;;;4.50;2.47;;;30.00;61.30;;;;;;5033653;28;20029;-67
2022/07/03 09:18:39;;;;;;;7.95;1.80;;;30.30;59.80;;;;;;5033344;28;20029;-67
2022/07/03 09:21:06;;;;;;;2.20;2.10;;;30.60;59.30;;;;;;5033232;28;20477;-64
2022/07/03 09:23:39;;;;;;;2.20;2.08;;;30.80;58.80;;;;;;5065665;28;20061;-72
2022/07/03 09:26:06;;;;;;;2.50;2.13;;;30.70;57.80;;;;;;5033642;28;20032;-66
2022/07/03 09:28:44;;;;;;;2.22;2.00;;;31.00;57.80;;;;;;5033584;28;20029;-66
2022/07/03 09:31:12;;;;;;;2.30;2.10;;;31.40;56.70;;;;;;5033629;28;20053;-64
2022/07/03 09:33:59;;;;;;;1.90;1.80;;;31.30;55.60;;;;;;5033399;28;20038;-67
2022/07/03 09:36:43;;;;;;;2.40;2.15;;;31.60;55.50;;;;;;5032923;28;20061;-64
2022/07/03 09:39:36;;;;;;;2.42;1.80;;;31.50;56.10;;;;;;5033383;28;20036;-64
2022/07/03 09:42:06;;;;;;;2.13;1.92;;;31.70;55.30;;;;;;5033433;28;20044;-64
2022/07/03 09:44:33;;;;;;;2.10;1.80;;;31.70;55.10;;;;;;5033137;28;20358;-64
2022/07/03 09:47:14;;;;;;;1.88;1.77;;;32.00;55.00;;;;;;5033337;28;20099;-64
2022/07/03 09:49:52;;;;;;;2.03;1.80;;;31.70;54.70;;;;;;5037241;28;20437;-66
2022/07/03 09:52:34;;;;;;;1.98;1.75;;;31.60;55.30;;;;;;5037260;28;20265;-64
2022/07/03 09:55:20;;;;;;;1.60;1.50;;;31.80;54.40;;;;;;5037020;28;20132;-77
2022/07/03 09:57:58;;;;;;;1.85;1.75;;;32.30;54.20;;;;;;5036520;28;20037;-75
2022/07/03 10:00:25;;;;;;;3.45;1.60;;;32.90;53.00;;;;;;5037046;28;20079;-77
2022/07/03 10:03:12;;;;;;;4.07;1.67;;;32.60;51.80;;;;;;5035818;28;20394;-74
2022/07/03 10:05:39;;;;;;;2.35;1.77;;;31.90;52.70;;;;;;5036836;28;20120;-74
2022/07/03 10:08:06;;;;;;;1.77;1.67;;;31.70;54.00;;;;;;5037044;28;20462;-77
2022/07/03 10:10:34;;;;;;;1.88;1.77;;;31.80;53.70;;;;;;5036828;28;20061;-75
2022/07/03 10:13:00;;;;;;;3.10;1.70;;;31.60;53.40;;;;;;5036764;28;20076;-76
2022/07/03 10:15:27;;;;;;;1.77;1.67;;;31.10;53.70;;;;;;5037140;28;20065;-76
2022/07/03 10:17:57;;;;;;;3.15;1.80;;;30.60;55.60;;;;;;5035605;28;20030;-76
2022/07/03 10:20:30;;;;;;;1.70;1.70;;;30.80;55.90;;;;;;5035430;28;20057;-77
2022/07/03 10:22:56;;;;;;;2.03;1.52;;;31.10;55.70;;;;;;5036622;28;20072;-78
2022/07/03 10:25:23;;;;;;;1.50;1.40;;;31.00;54.50;;;;;;5036333;28;20548;-77
2022/07/03 10:27:49;;;;;;;3.03;2.03;;;31.10;54.60;;;;;;5036528;28;20029;-78
2022/07/03 10:30:16;;;;;;;2.17;1.83;;;31.00;54.70;;;;;;5068369;28;20113;-77
2022/07/03 10:32:44;;;;;;;1.77;1.60;;;31.30;54.10;;;;;;5035076;28;20060;-77
2022/07/03 10:35:12;;;;;;;1.85;1.75;;;31.40;55.00;;;;;;5035072;28;20026;-77
2022/07/03 10:38:03;;;;;;;1.65;1.10;;;31.80;53.60;;;;;;5036133;28;20034;-77
2022/07/03 10:46:22;;;;;;;2.00;1.63;;;32.30;52.60;;;;;;5036073;28;20075;-78
2022/07/03 10:48:57;;;;;;;1.85;1.75;;;32.30;53.00;;;;;;5034904;28;20428;-77
2022/07/03 10:51:24;;;;;;;1.40;1.30;;;32.80;52.30;;;;;;5036060;28;20088;-80
2022/07/03 10:53:49;;;;;;;1.38;1.27;;;33.10;50.50;;;;;;5035979;28;20470;-77
2022/07/03 10:56:15;;;;;;;2.33;1.50;;;32.40;51.50;;;;;;5036028;28;20028;-77
2022/07/03 10:58:58;;;;;;;1.70;1.60;;;32.60;52.50;;;;;;5035610;28;20083;-77
2022/07/03 11:01:31;;;;;;;3.42;1.70;;;32.90;52.40;;;;;;5035921;28;20025;-77
2022/07/03 11:04:01;;;;;;;2.72;1.88;;;33.50;51.60;;;;;;5036077;28;20025;-76
2022/07/03 11:07:05;;;;;;;2.72;2.10;;;32.70;52.80;;;;;;5068450;28;20136;-72
2022/07/03 11:09:31;;;;;;;2.15;2.05;;;33.30;51.50;;;;;;5035914;28;20040;-75
2022/07/03 11:11:57;;;;;;;1.65;1.55;;;33.40;50.20;;;;;;5035719;28;20026;-73
2022/07/03 11:14:27;;;;;;;2.88;1.75;;;34.40;49.80;;;;;;5035587;28;20124;-73
2022/07/03 11:17:19;;;;;;;2.78;1.80;;;35.00;48.60;;;;;;5035569;28;20025;-75
2022/07/03 11:20:23;;;;;;;1.90;1.80;;;34.50;48.60;;;;;;5035536;28;20021;-76
2022/07/03 11:22:53;;;;;;;1.42;1.42;;;34.50;49.70;;;;;;5035251;28;20061;-76
2022/07/03 11:25:18;;;;;;;1.75;1.42;;;34.20;49.50;;;;;;5035823;28;20033;-75
2022/07/03 11:27:47;;;;;;;1.70;1.60;;;34.40;49.60;;;;;;5067565;28;20075;-74
2022/07/03 11:30:13;;;;;;;2.80;1.60;;;34.50;49.90;;;;;;5067345;28;20030;-74
2022/07/03 11:32:49;;;;;;;3.15;1.73;;;34.60;48.90;;;;;;5035091;28;20112;-75
2022/07/03 11:35:51;;;;;;;1.60;1.50;;;34.80;48.90;;;;;;5035417;28;20063;-72
2022/07/03 11:38:26;;;;;;;1.40;1.40;;;34.60;48.60;;;;;;5034041;28;20030;-72
2022/07/03 11:40:54;;;;;;;1.80;1.60;;;34.40;49.00;;;;;;5035188;28;20057;-72
2022/07/03 11:43:21;;;;;;;1.73;1.63;;;34.40;49.40;;;;;;5035028;28;20461;-75
2022/07/03 11:45:48;;;;;;;1.55;1.55;;;34.20;48.70;;;;;;5035093;28;20452;-72
2022/07/03 11:48:14;;;;;;;1.40;1.30;;;34.20;48.80;;;;;;5035063;28;20029;-72
2022/07/03 11:50:45;;;;;;;2.20;1.48;;;34.30;48.60;;;;;;5034989;28;20018;-72
2022/07/03 11:53:29;;;;;;;1.70;1.50;;;34.20;49.20;;;;;;5034711;28;20466;-71
2022/07/03 11:56:02;;;;;;;2.22;1.30;;;34.40;48.50;;;;;;5033496;28;20032;-72
2022/07/03 11:58:41;;;;;;;1.30;1.30;;;34.70;48.50;;;;;;5034794;28;20073;-75
2022/07/03 12:01:07;;;;;;;;;;;34.90;47.80;;;;;;5035113;28;20117;-72
2022/07/03 12:03:33;;;;;;;3.00;1.50;;;35.30;46.90;;;;;;5034733;28;19905;-72
2022/07/03 12:06:00;;;;;;;1.88;1.70;;;35.10;47.10;;;;;;5034308;28;20103;-74
2022/07/03 12:08:35;;;;;;;1.85;1.42;;;35.10;46.60;;;;;;5066287;28;20033;-73
2022/07/03 12:11:23;;;;;;;4.63;1.63;;;35.10;46.50;;;;;;5033824;28;20023;-75
2022/07/03 12:13:50;;;;;;;1.73;1.30;;;35.20;46.90;;;;;;5034318;28;20045;-75
2022/07/03 12:16:16;;;;;;;1.20;1.20;;;35.10;46.50;;;;;;5034698;28;20268;-75
2022/07/03 12:18:53;;;;;;;1.42;1.02;;;35.00;45.90;;;;;;5034450;28;20366;-74
2022/07/03 12:21:22;;;;;;;1.20;1.20;;;35.00;47.00;;;;;;5034520;28;20200;-74
2022/07/03 12:23:50;;;;;;;1.45;1.23;;;35.80;45.70;;;;;;5034359;28;20037;-74
2022/07/03 12:26:32;;;;;;;1.83;1.10;;;35.80;44.20;;;;;;5034382;28;20065;-74
2022/07/03 12:29:01;;;;;;;2.33;1.33;;;35.70;44.60;;;;;;5034248;28;20053;-74
2022/07/03 12:31:28;;;;;;;1.95;1.00;;;35.60;45.10;;;;;;5034256;28;20024;-74
2022/07/03 12:33:54;;;;;;;1.40;1.30;;;35.60;45.40;;;;;;5034103;28;20025;-76
2022/07/03 12:36:20;;;;;;;1.10;1.00;;;35.60;45.20;;;;;;5033959;28;20033;-77
2022/07/03 12:38:53;;;;;;;2.05;1.02;;;35.50;44.30;;;;;;5066751;28;20193;-76
2022/07/03 12:41:20;;;;;;;2.50;1.40;;;35.30;44.60;;;;;;5034292;28;20099;-76
2022/07/03 12:43:48;;;;;;;2.83;1.40;;;35.40;45.00;;;;;;5033948;28;20029;-75
2022/07/03 12:46:19;;;;;;;1.13;1.02;;;35.80;44.20;;;;;;5032563;28;20030;-74
2022/07/03 12:48:51;;;;;;;1.10;0.98;;;36.10;43.80;;;;;;5066378;28;20469;-74
2022/07/03 12:51:36;;;;;;;1.23;1.13;;;36.20;44.30;;;;;;5033932;28;20108;-73
2022/07/03 12:54:02;;;;;;;1.75;0.93;;;36.30;43.70;;;;;;5033785;28;20059;-71
2022/07/03 12:56:28;;;;;;;1.90;1.15;;;36.70;41.90;;;;;;5033363;28;20389;-73
2022/07/03 13:01:37;;;;;;;2.35;0.90;;;35.80;43.30;;;;;;5033875;28;20068;-74
2022/07/03 13:04:04;;;;;;;0.95;0.80;;;36.10;43.40;;;;;;5034023;28;20457;-74
2022/07/03 13:06:30;;;;;;;1.20;1.10;;;36.50;43.20;;;;;;5033709;28;20026;-74
2022/07/03 13:09:01;;;;;;;0.90;0.90;;;36.80;41.50;;;;;;5032638;28;20033;-74
2022/07/03 13:11:31;;;;;;;0.75;0.75;;;36.50;42.40;;;;;;5033801;28;20410;-79
2022/07/03 13:14:13;;;;;;;0.90;0.90;;;36.60;41.50;;;;;;5065420;28;20029;-75
2022/07/03 13:16:46;;;;;;;1.50;1.10;;;36.10;41.30;;;;;;5066011;28;20523;-77
2022/07/03 13:19:18;;;;;;;1.58;1.10;;;35.90;42.10;;;;;;5065478;28;20026;-79